sensor_id;sensor_type;location;lat;lon;timestamp;pressure;altitude;pressure_sealevel;temperature;humidity
43707;BME280;61348;53.392;-6.248;2023-04-04T00:00:38;101913.84;;;7.21;82.15
43707;BME280;61348;53.392;-6.248;2023-04-04T00:03:05;101910.25;;;7.20;82.54
43707;BME280;61348;53.392;-6.248;2023-04-04T00:05:32;101902.06;;;7.15;82.61
43707;BME280;61348;53.392;-6.248;2023-04-04T00:08:02;101906.53;;;7.11;82.84
43707;BME280;61348;53.392;-6.248;2023-04-04T00:10:29;101904.06;;;7.10;83.09
43707;BME280;61348;53.392;-6.248;2023-04-04T00:12:55;101907.13;;;7.08;82.97
43707;BME280;61348;53.392;-6.248;2023-04-04T00:15:22;101900.84;;;7.03;82.93
43707;BME280;61348;53.392;-6.248;2023-04-04T00:17:49;101899.75;;;7.04;83.05
43707;BME280;61348;53.392;-6.248;2023-04-04T00:20:16;101897.00;;;7.04;82.86
43707;BME280;61348;53.392;-6.248;2023-04-04T00:22:43;101899.75;;;7.04;83.01
43707;BME280;61348;53.392;-6.248;2023-04-04T00:25:10;101893.41;;;7.03;82.58
43707;BME280;61348;53.392;-6.248;2023-04-04T00:27:37;101896.69;;;7.05;82.53
43707;BME280;61348;53.392;-6.248;2023-04-04T00:30:05;101892.00;;;7.06;82.21
43707;BME280;61348;53.392;-6.248;2023-04-04T00:32:32;101896.94;;;7.09;82.03
43707;BME280;61348;53.392;-6.248;2023-04-04T00:34:59;101888.66;;;7.09;81.78
43707;BME280;61348;53.392;-6.248;2023-04-04T00:37:25;101894.38;;;7.12;81.62
43707;BME280;61348;53.392;-6.248;2023-04-04T00:39:53;101890.22;;;7.15;81.32
43707;BME280;61348;53.392;-6.248;2023-04-04T00:42:20;101890.22;;;7.15;81.39
43707;BME280;61348;53.392;-6.248;2023-04-04T00:44:46;101885.25;;;7.17;80.96
43707;BME280;61348;53.392;-6.248;2023-04-04T00:47:14;101885.78;;;7.19;81.08
43707;BME280;61348;53.392;-6.248;2023-04-04T00:49:40;101887.44;;;7.20;80.67
43707;BME280;61348;53.392;-6.248;2023-04-04T00:52:07;101877.53;;;7.19;80.65
43707;BME280;61348;53.392;-6.248;2023-04-04T00:54:34;101877.22;;;7.20;80.70
43707;BME280;61348;53.392;-6.248;2023-04-04T00:57:02;101881.63;;;7.21;80.58
43707;BME280;61348;53.392;-6.248;2023-04-04T00:59:30;101878.03;;;7.21;80.68
43707;BME280;61348;53.392;-6.248;2023-04-04T01:01:58;101870.28;;;7.23;80.74
43707;BME280;61348;53.392;-6.248;2023-04-04T01:04:26;101870.84;;;7.25;80.62
43707;BME280;61348;53.392;-6.248;2023-04-04T01:06:55;101869.72;;;7.26;80.69
43707;BME280;61348;53.392;-6.248;2023-04-04T01:09:22;101871.34;;;7.27;80.58
43707;BME280;61348;53.392;-6.248;2023-04-04T01:11:49;101876.88;;;7.27;80.79
43707;BME280;61348;53.392;-6.248;2023-04-04T01:14:16;101866.38;;;7.29;80.87
43707;BME280;61348;53.392;-6.248;2023-04-04T01:16:43;101874.63;;;7.29;80.69
43707;BME280;61348;53.392;-6.248;2023-04-04T01:19:19;101867.50;;;7.28;80.68
43707;BME280;61348;53.392;-6.248;2023-04-04T01:21:48;101866.69;;;7.27;80.69
43707;BME280;61348;53.392;-6.248;2023-04-04T01:24:15;101860.63;;;7.25;80.53
43707;BME280;61348;53.392;-6.248;2023-04-04T01:26:42;101861.44;;;7.26;80.74
43707;BME280;61348;53.392;-6.248;2023-04-04T01:29:09;101859.81;;;7.25;80.70
43707;BME280;61348;53.392;-6.248;2023-04-04T01:31:39;101851.00;;;7.23;80.66
43707;BME280;61348;53.392;-6.248;2023-04-04T01:39:26;101848.06;;;7.19;80.91
43707;BME280;61348;53.392;-6.248;2023-04-04T01:41:55;101848.63;;;7.16;80.61
43707;BME280;61348;53.392;-6.248;2023-04-04T01:44:24;101847.81;;;7.16;80.54
43707;BME280;61348;53.392;-6.248;2023-04-04T01:46:55;101847.81;;;7.16;80.77
43707;BME280;61348;53.392;-6.248;2023-04-04T01:49:22;101837.91;;;7.15;80.63
43707;BME280;61348;53.392;-6.248;2023-04-04T01:51:50;101837.09;;;7.14;80.85
43707;BME280;61348;53.392;-6.248;2023-04-04T01:54:18;101843.41;;;7.15;80.52
43707;BME280;61348;53.392;-6.248;2023-04-04T01:56:44;101834.63;;;7.13;80.45
43707;BME280;61348;53.392;-6.248;2023-04-04T01:59:12;101835.84;;;7.07;80.36
43707;BME280;61348;53.392;-6.248;2023-04-04T02:01:38;101834.69;;;7.08;80.73
43707;BME280;61348;53.392;-6.248;2023-04-04T02:04:05;101827.56;;;7.07;80.40
43707;BME280;61348;53.392;-6.248;2023-04-04T02:06:32;101822.59;;;7.09;80.60
43707;BME280;61348;53.392;-6.248;2023-04-04T02:08:59;101826.44;;;7.08;80.34
43707;BME280;61348;53.392;-6.248;2023-04-04T02:11:26;101829.19;;;7.08;80.67
43707;BME280;61348;53.392;-6.248;2023-04-04T02:13:53;101825.34;;;7.09;80.68
43707;BME280;61348;53.392;-6.248;2023-04-04T02:16:19;101826.44;;;7.08;80.84
43707;BME280;61348;53.392;-6.248;2023-04-04T02:18:46;101826.44;;;7.08;80.81
43707;BME280;61348;53.392;-6.248;2023-04-04T02:21:13;101829.19;;;7.08;80.92
43707;BME280;61348;53.392;-6.248;2023-04-04T02:23:40;101832.25;;;7.06;80.95
43707;BME280;61348;53.392;-6.248;2023-04-04T02:26:07;101829.25;;;7.03;80.82
43707;BME280;61348;53.392;-6.248;2023-04-04T02:28:33;101823.44;;;7.04;81.14
43707;BME280;61348;53.392;-6.248;2023-04-04T02:31:01;101817.94;;;7.04;81.16
43707;BME280;61348;53.392;-6.248;2023-04-04T02:33:28;101815.50;;;7.03;81.13
43707;BME280;61348;53.392;-6.248;2023-04-04T02:35:56;101812.44;;;7.04;81.10
43707;BME280;61348;53.392;-6.248;2023-04-04T02:38:24;101821.00;;;7.03;81.04
43707;BME280;61348;53.392;-6.248;2023-04-04T02:40:52;101815.50;;;7.03;81.55
43707;BME280;61348;53.392;-6.248;2023-04-04T02:43:18;101811.63;;;7.04;81.40
43707;BME280;61348;53.392;-6.248;2023-04-04T02:45:48;101820.41;;;7.06;81.49
43707;BME280;61348;53.392;-6.248;2023-04-04T02:48:14;101815.72;;;7.06;81.61
43707;BME280;61348;53.392;-6.248;2023-04-04T02:50:41;101809.41;;;7.06;81.59
43707;BME280;61348;53.392;-6.248;2023-04-04T02:53:09;101825.09;;;7.05;81.83
43707;BME280;61348;53.392;-6.248;2023-04-04T02:55:35;101818.25;;;7.03;82.30
43707;BME280;61348;53.392;-6.248;2023-04-04T02:58:02;101816.31;;;7.03;82.36
43707;BME280;61348;53.392;-6.248;2023-04-04T03:00:35;101806.13;;;7.04;82.48
43707;BME280;61348;53.392;-6.248;2023-04-04T03:03:03;101815.50;;;7.03;82.39
43707;BME280;61348;53.392;-6.248;2023-04-04T03:05:31;101815.50;;;7.03;82.89
43707;BME280;61348;53.392;-6.248;2023-04-04T03:07:58;101810.56;;;7.00;82.79
43707;BME280;61348;53.392;-6.248;2023-04-04T03:10:26;101814.22;;;6.95;82.83
43707;BME280;61348;53.392;-6.248;2023-04-04T03:12:55;101808.47;;;6.92;82.98
43707;BME280;61348;53.392;-6.248;2023-04-04T03:15:22;101810.66;;;6.95;83.02
43707;BME280;61348;53.392;-6.248;2023-04-04T03:17:49;101803.78;;;6.92;nan
43707;BME280;61348;53.392;-6.248;2023-04-04T03:20:17;101801.88;;;6.93;83.01
43707;BME280;61348;53.392;-6.248;2023-04-04T03:22:44;101801.34;;;6.91;83.05
43707;BME280;61348;53.392;-6.248;2023-04-04T03:25:11;101789.50;;;6.90;83.11
43707;BME280;61348;53.392;-6.248;2023-04-04T03:27:37;101801.34;;;6.91;82.88
43707;BME280;61348;53.392;-6.248;2023-04-04T03:30:06;101791.75;;;6.88;82.74
43707;BME280;61348;53.392;-6.248;2023-04-04T03:32:35;101793.09;;;6.91;82.78
43707;BME280;61348;53.392;-6.248;2023-04-04T03:35:02;101792.78;;;6.92;82.81
43707;BME280;61348;53.392;-6.248;2023-04-04T03:37:29;101793.59;;;6.93;82.54
43707;BME280;61348;53.392;-6.248;2023-04-04T03:39:56;101791.38;;;6.95;82.46
43707;BME280;61348;53.392;-6.248;2023-04-04T03:42:23;101787.50;;;6.96;82.39
43707;BME280;61348;53.392;-6.248;2023-04-04T03:44:52;101789.72;;;6.94;82.21
43707;BME280;61348;53.392;-6.248;2023-04-04T03:47:21;101776.50;;;6.96;82.40
43707;BME280;61348;53.392;-6.248;2023-04-04T03:49:48;101771.50;;;6.98;82.30
43707;BME280;61348;53.392;-6.248;2023-04-04T03:52:16;101779.78;;;6.98;82.15
43707;BME280;61348;53.392;-6.248;2023-04-04T03:54:44;101778.66;;;6.99;82.09
43707;BME280;61348;53.392;-6.248;2023-04-04T03:57:11;101772.03;;;7.00;82.10
43707;BME280;61348;53.392;-6.248;2023-04-04T03:59:38;101769.00;;;7.01;82.10
43707;BME280;61348;53.392;-6.248;2023-04-04T04:02:05;101770.63;;;7.02;82.16
43707;BME280;61348;53.392;-6.248;2023-04-04T04:04:32;101775.03;;;7.03;82.10
43707;BME280;61348;53.392;-6.248;2023-04-04T04:06:59;101771.44;;;7.03;81.97
43707;BME280;61348;53.392;-6.248;2023-04-04T04:09:26;101769.50;;;7.03;82.06
43707;BME280;61348;53.392;-6.248;2023-04-04T04:11:52;101774.72;;;7.05;82.10
43707;BME280;61348;53.392;-6.248;2023-04-04T04:14:19;101765.34;;;7.06;82.11
43707;BME280;61348;53.392;-6.248;2023-04-04T04:16:46;101769.19;;;7.05;82.19
43707;BME280;61348;53.392;-6.248;2023-04-04T04:19:13;101774.72;;;7.05;82.28
43707;BME280;61348;53.392;-6.248;2023-04-04T04:21:39;101776.38;;;7.06;82.32
43707;BME280;61348;53.392;-6.248;2023-04-04T04:24:08;101768.91;;;7.06;82.25
43707;BME280;61348;53.392;-6.248;2023-04-04T04:26:35;101773.03;;;7.09;82.49
43707;BME280;61348;53.392;-6.248;2023-04-04T04:29:01;101777.38;;;7.10;82.50
43707;BME280;61348;53.392;-6.248;2023-04-04T04:31:28;101762.81;;;7.09;82.66
43707;BME280;61348;53.392;-6.248;2023-04-04T04:33:55;101756.50;;;7.09;82.81
43707;BME280;61348;53.392;-6.248;2023-04-04T04:36:22;101771.59;;;7.11;82.78
43707;BME280;61348;53.392;-6.248;2023-04-04T04:38:49;101777.63;;;7.13;82.85
43707;BME280;61348;53.392;-6.248;2023-04-04T04:41:16;101762.97;;;7.18;82.77
43707;BME280;61348;53.392;-6.248;2023-04-04T04:43:42;101751.94;;;7.18;82.49
43707;BME280;61348;53.392;-6.248;2023-04-04T04:46:09;101734.63;;;7.17;82.98
43707;BME280;61348;53.392;-6.248;2023-04-04T04:48:36;101743.41;;;7.19;82.88
43707;BME280;61348;53.392;-6.248;2023-04-04T04:51:03;101731.78;;;7.22;82.88
43707;BME280;61348;53.392;-6.248;2023-04-04T04:53:29;101732.59;;;7.23;82.89
43707;BME280;61348;53.392;-6.248;2023-04-04T04:55:56;101739.75;;;7.24;82.88
43707;BME280;61348;53.392;-6.248;2023-04-04T04:58:23;101744.44;;;7.23;82.97
43707;BME280;61348;53.392;-6.248;2023-04-04T05:00:54;101749.09;;;7.23;83.13
43707;BME280;61348;53.392;-6.248;2023-04-04T05:03:23;101748.81;;;7.24;83.14
43707;BME280;61348;53.392;-6.248;2023-04-04T05:05:50;101746.34;;;7.23;83.12
43707;BME280;61348;53.392;-6.248;2023-04-04T05:08:17;101743.59;;;7.23;83.24
43707;BME280;61348;53.392;-6.248;2023-04-04T05:10:44;101751.88;;;7.23;83.25
43707;BME280;61348;53.392;-6.248;2023-04-04T05:13:11;101739.75;;;7.24;83.57
43707;BME280;61348;53.392;-6.248;2023-04-04T05:15:37;101739.75;;;7.24;83.32
43707;BME280;61348;53.392;-6.248;2023-04-04T05:18:04;101754.34;;;7.24;83.45
43707;BME280;61348;53.392;-6.248;2023-04-04T05:20:31;101746.06;;;7.24;83.71
43707;BME280;61348;53.392;-6.248;2023-04-04T05:22:58;101739.75;;;7.24;83.57
43707;BME280;61348;53.392;-6.248;2023-04-04T05:25:25;101736.97;;;7.24;83.71
43707;BME280;61348;53.392;-6.248;2023-04-04T05:27:57;101740.06;;;7.22;83.77
43707;BME280;61348;53.392;-6.248;2023-04-04T05:30:24;101736.47;;;7.22;83.66
43707;BME280;61348;53.392;-6.248;2023-04-04T05:32:51;101732.59;;;7.23;83.71
43707;BME280;61348;53.392;-6.248;2023-04-04T05:35:18;101730.38;;;7.25;83.77
43707;BME280;61348;53.392;-6.248;2023-04-04T05:37:45;101724.88;;;7.25;83.98
43707;BME280;61348;53.392;-6.248;2023-04-04T05:40:11;101734.22;;;7.24;83.88
43707;BME280;61348;53.392;-6.248;2023-04-04T05:42:38;101726.28;;;7.22;83.91
43707;BME280;61348;53.392;-6.248;2023-04-04T05:45:05;101724.03;;;7.24;83.85
43707;BME280;61348;53.392;-6.248;2023-04-04T05:47:32;101726.78;;;7.24;83.98
43707;BME280;61348;53.392;-6.248;2023-04-04T05:49:59;101735.06;;;7.24;83.73
43707;BME280;61348;53.392;-6.248;2023-04-04T05:52:26;101739.97;;;7.27;83.70
43707;BME280;61348;53.392;-6.248;2023-04-04T05:54:53;101738.03;;;7.28;83.63
43707;BME280;61348;53.392;-6.248;2023-04-04T05:57:20;101744.34;;;7.28;83.59
43707;BME280;61348;53.392;-6.248;2023-04-04T05:59:48;101735.81;;;7.30;83.42
43707;BME280;61348;53.392;-6.248;2023-04-04T06:02:15;101731.13;;;7.30;83.37
43707;BME280;61348;53.392;-6.248;2023-04-04T06:04:42;101734.66;;;7.31;83.55
43707;BME280;61348;53.392;-6.248;2023-04-04T06:07:10;101736.31;;;7.32;83.55
43707;BME280;61348;53.392;-6.248;2023-04-04T06:09:37;101740.16;;;7.31;83.64
43707;BME280;61348;53.392;-6.248;2023-04-04T06:12:04;101752.84;;;7.32;83.46
43707;BME280;61348;53.392;-6.248;2023-04-04T06:14:31;101753.94;;;7.31;83.50
43707;BME280;61348;53.392;-6.248;2023-04-04T06:16:57;101744.88;;;7.30;83.58
43707;BME280;61348;53.392;-6.248;2023-04-04T06:19:25;101758.34;;;7.32;83.71
43707;BME280;61348;53.392;-6.248;2023-04-04T06:21:52;101757.75;;;7.35;83.82
43707;BME280;61348;53.392;-6.248;2023-04-04T06:24:19;101759.69;;;7.34;83.76
43707;BME280;61348;53.392;-6.248;2023-04-04T06:26:45;101758.84;;;7.34;83.77
43707;BME280;61348;53.392;-6.248;2023-04-04T06:29:16;101760.00;;;7.33;83.80
43707;BME280;61348;53.392;-6.248;2023-04-04T06:31:43;101762.75;;;7.33;83.99
43707;BME280;61348;53.392;-6.248;2023-04-04T06:34:10;101771.81;;;7.33;84.03
43707;BME280;61348;53.392;-6.248;2023-04-04T06:36:37;101767.13;;;7.34;84.04
43707;BME280;61348;53.392;-6.248;2023-04-04T06:39:04;101772.03;;;7.37;84.04
43707;BME280;61348;53.392;-6.248;2023-04-04T06:41:31;101772.56;;;7.39;84.05
43707;BME280;61348;53.392;-6.248;2023-04-04T06:43:57;101780.53;;;7.41;84.24
43707;BME280;61348;53.392;-6.248;2023-04-04T06:46:24;101774.72;;;7.42;84.13
43707;BME280;61348;53.392;-6.248;2023-04-04T06:48:52;101772.47;;;7.44;84.20
43707;BME280;61348;53.392;-6.248;2023-04-04T06:51:21;101763.94;;;7.46;84.39
43707;BME280;61348;53.392;-6.248;2023-04-04T06:53:48;101770.25;;;7.46;84.17
43707;BME280;61348;53.392;-6.248;2023-04-04T06:56:15;101767.19;;;7.48;84.41
43707;BME280;61348;53.392;-6.248;2023-04-04T06:58:42;101767.19;;;7.48;84.50
43707;BME280;61348;53.392;-6.248;2023-04-04T07:01:09;101760.25;;;7.50;84.73
43707;BME280;61348;53.392;-6.248;2023-04-04T07:03:35;101767.09;;;7.53;84.55
43707;BME280;61348;53.392;-6.248;2023-04-04T07:06:05;101749.47;;;7.54;84.66
43707;BME280;61348;53.392;-6.248;2023-04-04T07:08:32;101753.56;;;7.56;84.68
43707;BME280;61348;53.392;-6.248;2023-04-04T07:11:01;101752.13;;;7.59;84.89
43707;BME280;61348;53.392;-6.248;2023-04-04T07:13:28;101749.06;;;7.60;84.89
43707;BME280;61348;53.392;-6.248;2023-04-04T07:15:55;101752.38;;;7.62;84.98
43707;BME280;61348;53.392;-6.248;2023-04-04T07:18:22;101749.28;;;7.64;85.08
43707;BME280;61348;53.392;-6.248;2023-04-04T07:20:49;101741.25;;;7.67;85.29
43707;BME280;61348;53.392;-6.248;2023-04-04T07:23:15;101753.00;;;7.73;85.31
43707;BME280;61348;53.392;-6.248;2023-04-04T07:25:43;101756.47;;;7.78;85.29
43707;BME280;61348;53.392;-6.248;2023-04-04T07:28:10;101763.84;;;7.83;85.43
43707;BME280;61348;53.392;-6.248;2023-04-04T07:30:39;101756.00;;;7.90;85.37
43707;BME280;61348;53.392;-6.248;2023-04-04T07:33:06;101750.13;;;7.96;85.48
43707;BME280;61348;53.392;-6.248;2023-04-04T07:35:34;101752.47;;;8.03;85.44
43707;BME280;61348;53.392;-6.248;2023-04-04T07:38:00;101750.44;;;8.09;85.54
43707;BME280;61348;53.392;-6.248;2023-04-04T07:40:28;101750.34;;;8.14;85.44
43707;BME280;61348;53.392;-6.248;2023-04-04T07:42:56;101746.38;;;8.20;85.50
43707;BME280;61348;53.392;-6.248;2023-04-04T07:45:22;101737.97;;;8.25;85.60
43707;BME280;61348;53.392;-6.248;2023-04-04T07:47:49;101721.88;;;8.32;85.45
43707;BME280;61348;53.392;-6.248;2023-04-04T07:50:16;101722.28;;;8.39;85.33
43707;BME280;61348;53.392;-6.248;2023-04-04T07:52:48;101727.16;;;8.42;85.15
43707;BME280;61348;53.392;-6.248;2023-04-04T07:55:16;101723.50;;;8.46;85.20
43707;BME280;61348;53.392;-6.248;2023-04-04T07:57:44;101718.19;;;8.50;84.98
43707;BME280;61348;53.392;-6.248;2023-04-04T08:00:13;101715.94;;;8.52;85.09
43707;BME280;61348;53.392;-6.248;2023-04-04T08:02:42;101717.56;;;8.53;85.08
43707;BME280;61348;53.392;-6.248;2023-04-04T08:05:09;101720.84;;;8.55;85.14
43707;BME280;61348;53.392;-6.248;2023-04-04T08:07:36;101711.94;;;8.58;85.07
43707;BME280;61348;53.392;-6.248;2023-04-04T08:10:04;101714.69;;;8.58;85.02
43707;BME280;61348;53.392;-6.248;2023-04-04T08:12:31;101709.19;;;8.58;85.05
43707;BME280;61348;53.392;-6.248;2023-04-04T08:14:58;101710.31;;;8.57;85.18
43707;BME280;61348;53.392;-6.248;2023-04-04T08:17:25;101716.34;;;8.59;85.08
43707;BME280;61348;53.392;-6.248;2023-04-04T08:19:52;101713.59;;;8.59;85.12
43707;BME280;61348;53.392;-6.248;2023-04-04T08:22:18;101700.00;;;8.63;85.12
43707;BME280;61348;53.392;-6.248;2023-04-04T08:24:45;101686.69;;;8.65;85.08
43707;BME280;61348;53.392;-6.248;2023-04-04T08:27:12;101694.66;;;8.66;84.94
43707;BME280;61348;53.392;-6.248;2023-04-04T08:29:40;101701.22;;;8.70;85.14
43707;BME280;61348;53.392;-6.248;2023-04-04T08:32:07;101706.63;;;8.75;85.26
43707;BME280;61348;53.392;-6.248;2023-04-04T08:34:35;101694.44;;;8.76;85.00
43707;BME280;61348;53.392;-6.248;2023-04-04T08:37:01;101689.44;;;8.78;84.93
43707;BME280;61348;53.392;-6.248;2023-04-04T08:39:28;101687.38;;;8.84;84.90
43707;BME280;61348;53.392;-6.248;2023-04-04T08:42:03;101687.44;;;8.92;84.97
43707;BME280;61348;53.392;-6.248;2023-04-04T08:44:33;101689.88;;;9.07;84.91
43707;BME280;61348;53.392;-6.248;2023-04-04T08:47:04;101694.41;;;9.26;84.61
43707;BME280;61348;53.392;-6.248;2023-04-04T08:49:36;101700.84;;;9.43;84.44
43707;BME280;61348;53.392;-6.248;2023-04-04T08:52:04;101702.56;;;9.53;84.26
43707;BME280;61348;53.392;-6.248;2023-04-04T08:54:33;101699.06;;;9.61;84.16
43707;BME280;61348;53.392;-6.248;2023-04-04T08:57:01;101693.38;;;9.66;83.89
43707;BME280;61348;53.392;-6.248;2023-04-04T08:59:27;101683.00;;;9.71;84.08
43707;BME280;61348;53.392;-6.248;2023-04-04T09:02:12;101691.47;;;9.75;83.99
43707;BME280;61348;53.392;-6.248;2023-04-04T09:04:41;101691.47;;;9.75;83.78
43707;BME280;61348;53.392;-6.248;2023-04-04T09:07:20;101682.69;;;9.73;83.71
43707;BME280;61348;53.392;-6.248;2023-04-04T09:09:48;101688.53;;;9.71;83.66
43707;BME280;61348;53.392;-6.248;2023-04-04T09:12:17;101686.91;;;9.70;83.47
43707;BME280;61348;53.392;-6.248;2023-04-04T09:14:45;101682.19;;;9.71;83.31
43707;BME280;61348;53.392;-6.248;2023-04-04T09:17:13;101672.13;;;9.75;83.52
43707;BME280;61348;53.392;-6.248;2023-04-04T09:19:39;101678.66;;;9.79;83.24
43707;BME280;61348;53.392;-6.248;2023-04-04T09:22:07;101681.91;;;9.81;82.99
43707;BME280;61348;53.392;-6.248;2023-04-04T09:24:39;101686.81;;;9.84;82.69
43707;BME280;61348;53.392;-6.248;2023-04-04T09:27:07;101688.44;;;9.85;82.42
43707;BME280;61348;53.392;-6.248;2023-04-04T09:29:38;101686.69;;;9.89;82.22
43707;BME280;61348;53.392;-6.248;2023-04-04T09:32:08;101683.63;;;9.99;82.12
43707;BME280;61348;53.392;-6.248;2023-04-04T09:34:36;101687.25;;;10.08;81.78
43707;BME280;61348;53.392;-6.248;2023-04-04T09:37:05;101684.53;;;10.17;81.57
43707;BME280;61348;53.392;-6.248;2023-04-04T09:39:33;101683.47;;;10.26;81.39
43707;BME280;61348;53.392;-6.248;2023-04-04T09:42:00;101688.50;;;10.33;81.06
43707;BME280;61348;53.392;-6.248;2023-04-04T09:44:28;101688.88;;;10.40;80.71
43707;BME280;61348;53.392;-6.248;2023-04-04T09:47:24;101686.94;;;10.49;80.69
43707;BME280;61348;53.392;-6.248;2023-04-04T09:50:00;101682.56;;;10.57;80.29
43707;BME280;61348;53.392;-6.248;2023-04-04T09:52:30;101682.09;;;10.63;79.94
43707;BME280;61348;53.392;-6.248;2023-04-04T09:55:00;101668.25;;;10.72;79.57
43707;BME280;61348;53.392;-6.248;2023-04-04T09:57:33;101677.06;;;10.91;79.21
43707;BME280;61348;53.392;-6.248;2023-04-04T10:00:04;101676.59;;;11.06;78.76
43707;BME280;61348;53.392;-6.248;2023-04-04T10:02:38;101674.47;;;11.12;78.31
43707;BME280;61348;53.392;-6.248;2023-04-04T10:05:12;101666.00;;;11.08;78.09
43707;BME280;61348;53.392;-6.248;2023-04-04T10:07:40;101669.13;;;11.07;78.03
43707;BME280;61348;53.392;-6.248;2023-04-04T10:10:09;101661.09;;;11.05;77.71
43707;BME280;61348;53.392;-6.248;2023-04-04T10:12:36;101665.00;;;11.04;77.18
43707;BME280;61348;53.392;-6.248;2023-04-04T10:15:04;101661.75;;;11.02;77.20
43707;BME280;61348;53.392;-6.248;2023-04-04T10:17:39;101669.59;;;11.00;77.23
43707;BME280;61348;53.392;-6.248;2023-04-04T10:20:07;101667.16;;;10.98;76.91
43707;BME280;61348;53.392;-6.248;2023-04-04T10:22:35;101671.88;;;10.98;76.68
43707;BME280;61348;53.392;-6.248;2023-04-04T10:25:04;101666.97;;;10.95;76.67
43707;BME280;61348;53.392;-6.248;2023-04-04T10:27:32;101673.00;;;10.97;76.53
43707;BME280;61348;53.392;-6.248;2023-04-04T10:29:59;101670.22;;;10.97;76.22
43707;BME280;61348;53.392;-6.248;2023-04-04T10:32:32;101672.84;;;11.02;76.15
43707;BME280;61348;53.392;-6.248;2023-04-04T10:35:06;101672.03;;;11.10;75.78
43707;BME280;61348;53.392;-6.248;2023-04-04T10:37:48;101673.00;;;11.23;75.50
43707;BME280;61348;53.392;-6.248;2023-04-04T10:40:18;101674.63;;;11.32;75.33
43707;BME280;61348;53.392;-6.248;2023-04-04T10:42:49;101663.84;;;11.39;74.92
43707;BME280;61348;53.392;-6.248;2023-04-04T10:45:16;101665.16;;;11.50;75.02
43707;BME280;61348;53.392;-6.248;2023-04-04T10:47:47;101659.88;;;11.66;74.57
43707;BME280;61348;53.392;-6.248;2023-04-04T10:50:14;101663.44;;;11.84;74.40
43707;BME280;61348;53.392;-6.248;2023-04-04T10:52:43;101680.22;;;12.04;73.76
43707;BME280;61348;53.392;-6.248;2023-04-04T10:55:13;101670.84;;;12.17;73.30
43707;BME280;61348;53.392;-6.248;2023-04-04T10:57:51;101670.00;;;12.26;73.33
43707;BME280;61348;53.392;-6.248;2023-04-04T11:00:21;101664.75;;;12.24;72.91
43707;BME280;61348;53.392;-6.248;2023-04-04T11:08:04;101650.28;;;12.10;71.82
43707;BME280;61348;53.392;-6.248;2023-04-04T11:10:36;101658.13;;;12.08;71.39
43707;BME280;61348;53.392;-6.248;2023-04-04T11:13:12;101652.94;;;12.06;71.36
43707;BME280;61348;53.392;-6.248;2023-04-04T11:15:54;101649.53;;;12.01;70.98
43707;BME280;61348;53.392;-6.248;2023-04-04T11:21:03;101659.16;;;11.95;70.37
43707;BME280;61348;53.392;-6.248;2023-04-04T11:24:11;101651.66;;;11.95;70.50
43707;BME280;61348;53.392;-6.248;2023-04-04T11:26:40;101637.44;;;11.97;70.16
43707;BME280;61348;53.392;-6.248;2023-04-04T11:29:08;101647.88;;;12.00;69.90
43707;BME280;61348;53.392;-6.248;2023-04-04T11:31:43;101644.13;;;12.04;69.73
43707;BME280;61348;53.392;-6.248;2023-04-04T11:34:12;101626.00;;;12.07;69.54
43707;BME280;61348;53.392;-6.248;2023-04-04T11:39:29;101618.28;;;12.12;69.63
43707;BME280;61348;53.392;-6.248;2023-04-04T11:42:09;101608.47;;;12.15;69.34
43707;BME280;61348;53.392;-6.248;2023-04-04T11:47:25;101609.00;;;12.08;68.97
43707;BME280;61348;53.392;-6.248;2023-04-04T11:49:52;101611.78;;;12.08;69.01
43707;BME280;61348;53.392;-6.248;2023-04-04T11:52:19;101610.28;;;12.11;68.94
43707;BME280;61348;53.392;-6.248;2023-04-04T11:54:47;101607.19;;;12.12;68.47
43707;BME280;61348;53.392;-6.248;2023-04-04T11:57:17;101605.84;;;12.18;68.71
43707;BME280;61348;53.392;-6.248;2023-04-04T11:59:46;101611.16;;;12.32;68.59
43707;BME280;61348;53.392;-6.248;2023-04-04T12:02:23;101594.38;;;12.49;68.64
43707;BME280;61348;53.392;-6.248;2023-04-04T12:04:53;101590.38;;;12.59;68.36
43707;BME280;61348;53.392;-6.248;2023-04-04T12:07:22;101583.94;;;12.67;68.22
43707;BME280;61348;53.392;-6.248;2023-04-04T12:09:50;101574.13;;;12.69;68.13
43707;BME280;61348;53.392;-6.248;2023-04-04T12:12:17;101569.72;;;12.68;67.83
43707;BME280;61348;53.392;-6.248;2023-04-04T12:14:45;101565.38;;;12.79;67.83
43707;BME280;61348;53.392;-6.248;2023-04-04T12:17:14;101563.44;;;12.92;67.63
43707;BME280;61348;53.392;-6.248;2023-04-04T12:19:42;101563.72;;;12.99;67.28
43707;BME280;61348;53.392;-6.248;2023-04-04T12:22:09;101563.06;;;13.02;67.31
43707;BME280;61348;53.392;-6.248;2023-04-04T12:24:36;101567.50;;;12.95;66.80
43707;BME280;61348;53.392;-6.248;2023-04-04T12:27:03;101575.84;;;12.95;66.99
43707;BME280;61348;53.392;-6.248;2023-04-04T12:29:38;101556.66;;;13.02;66.91
43707;BME280;61348;53.392;-6.248;2023-04-04T12:32:08;101562.66;;;13.12;66.65
43707;BME280;61348;53.392;-6.248;2023-04-04T12:34:41;101551.16;;;13.14;66.68
43707;BME280;61348;53.392;-6.248;2023-04-04T12:37:15;101548.41;;;13.14;66.54
43707;BME280;61348;53.392;-6.248;2023-04-04T12:39:48;101550.03;;;13.15;66.44
43707;BME280;61348;53.392;-6.248;2023-04-04T12:42:20;101540.28;;;13.09;66.32
43707;BME280;61348;53.392;-6.248;2023-04-04T12:44:49;101534.53;;;13.05;66.43
43707;BME280;61348;53.392;-6.248;2023-04-04T12:47:17;101538.66;;;13.08;66.65
43707;BME280;61348;53.392;-6.248;2023-04-04T12:49:47;101537.28;;;13.14;66.59
43707;BME280;61348;53.392;-6.248;2023-04-04T12:52:18;101528.03;;;13.22;66.57
43707;BME280;61348;53.392;-6.248;2023-04-04T12:54:50;101533.13;;;13.32;66.41
43707;BME280;61348;53.392;-6.248;2023-04-04T12:57:24;101523.44;;;13.38;66.54
43707;BME280;61348;53.392;-6.248;2023-04-04T12:59:53;101523.19;;;13.43;66.31
43707;BME280;61348;53.392;-6.248;2023-04-04T13:02:22;101520.69;;;13.50;66.00
43707;BME280;61348;53.392;-6.248;2023-04-04T13:04:53;101524.72;;;13.65;66.00
43707;BME280;61348;53.392;-6.248;2023-04-04T13:07:24;101518.59;;;13.83;65.74
43707;BME280;61348;53.392;-6.248;2023-04-04T13:09:59;101519.72;;;14.07;65.58
43707;BME280;61348;53.392;-6.248;2023-04-04T13:12:57;101520.31;;;14.24;65.30